createdAt,value
2017-05-01T00:01:04.802Z,56.70
2017-05-01T00:03:33.149Z,57.00
2017-05-01T00:06:01.369Z,57.00
2017-05-01T00:08:29.752Z,57.30
2017-05-01T00:10:57.999Z,57.40
2017-05-01T00:13:26.220Z,57.60
2017-05-01T00:15:55.222Z,57.80
2017-05-01T00:18:23.496Z,57.80
2017-05-01T00:20:52.489Z,57.90
2017-05-01T00:23:21.464Z,58.10
2017-05-01T00:25:50.524Z,58.30
2017-05-01T00:28:18.748Z,58.50
2017-05-01T00:30:47.712Z,58.70
2017-05-01T00:33:15.968Z,58.90
2017-05-01T00:35:44.297Z,59.00
2017-05-01T00:38:12.526Z,59.00
2017-05-01T00:40:40.869Z,59.10
2017-05-01T00:43:09.122Z,59.30
2017-05-01T00:45:37.368Z,60.20
2017-05-01T00:48:05.668Z,59.70
2017-05-01T00:50:34.758Z,59.80
2017-05-01T00:53:03.752Z,60.00
2017-05-01T00:55:32.745Z,60.20
2017-05-01T00:58:01.710Z,60.20
2017-05-01T01:00:29.944Z,60.50
2017-05-01T01:02:58.201Z,60.60
2017-05-01T01:05:26.459Z,60.60
2017-05-01T01:07:55.467Z,60.70
2017-05-01T01:10:29.432Z,61.10
2017-05-01T01:12:57.675Z,61.40
2017-05-01T01:15:25.936Z,61.80
2017-05-01T01:17:54.305Z,61.80
2017-05-01T01:20:22.544Z,62.10
2017-05-01T01:22:50.777Z,62.40
2017-05-01T01:25:19.025Z,62.40
2017-05-01T01:27:47.292Z,62.50
2017-05-01T01:30:15.596Z,63.10
2017-05-01T01:32:43.845Z,63.00
2017-05-01T01:35:12.084Z,63.20
2017-05-01T01:37:40.393Z,63.20
2017-05-01T01:40:08.640Z,63.30
2017-05-01T01:42:36.860Z,63.50
2017-05-01T01:45:05.153Z,63.70
2017-05-01T01:47:33.402Z,63.70
2017-05-01T01:50:01.672Z,63.80
2017-05-01T01:52:29.919Z,64.00
2017-05-01T01:54:58.159Z,64.00
2017-05-01T01:57:26.382Z,64.20
2017-05-01T01:59:55.360Z,63.90
2017-05-01T02:02:23.606Z,64.20
2017-05-01T02:04:51.831Z,64.40
2017-05-01T02:07:20.062Z,64.60
2017-05-01T02:09:48.311Z,64.70
2017-05-01T02:12:16.547Z,65.00
2017-05-01T02:14:45.555Z,65.20
2017-05-01T02:17:13.837Z,65.30
2017-05-01T02:19:42.060Z,65.40
2017-05-01T02:22:10.300Z,65.20
2017-05-01T02:24:38.690Z,65.20
2017-05-01T02:27:07.032Z,65.20
2017-05-01T02:29:35.264Z,65.20
2017-05-01T02:32:03.516Z,65.20
2017-05-01T02:34:31.844Z,65.10
2017-05-01T02:37:00.811Z,65.10
2017-05-01T02:39:29.068Z,65.00
2017-05-01T02:41:57.401Z,65.30
2017-05-01T02:44:25.626Z,65.20
2017-05-01T02:46:53.918Z,65.20
2017-05-01T02:49:22.220Z,65.00
2017-05-01T02:51:51.218Z,64.90
2017-05-01T02:54:19.530Z,64.90
2017-05-01T02:56:47.814Z,64.90
2017-05-01T02:59:16.091Z,64.90
2017-05-01T03:01:44.356Z,65.10
2017-05-01T03:04:12.577Z,65.00
2017-05-01T03:06:41.592Z,65.10
2017-05-01T03:09:09.848Z,65.10
2017-05-01T03:11:38.855Z,65.00
2017-05-01T03:14:07.095Z,65.50
2017-05-01T03:16:35.393Z,65.10
2017-05-01T03:19:04.356Z,65.20
2017-05-01T03:21:32.675Z,65.20
2017-05-01T03:24:00.936Z,65.40
2017-05-01T03:26:29.928Z,65.60
2017-05-01T03:28:59.070Z,65.50
2017-05-01T03:31:27.329Z,65.60
2017-05-01T03:33:55.558Z,65.70
2017-05-01T03:36:23.863Z,65.70
2017-05-01T03:38:52.135Z,65.70
2017-05-01T03:41:20.372Z,66.80
2017-05-01T03:43:48.673Z,66.10
2017-05-01T03:46:17.776Z,66.10
2017-05-01T03:48:46.005Z,66.20
2017-05-01T03:51:14.231Z,66.10
2017-05-01T03:53:42.507Z,66.40
2017-05-01T03:56:10.756Z,66.50
2017-05-01T03:58:38.972Z,66.40
2017-05-01T04:01:07.224Z,66.30
2017-05-01T04:03:35.496Z,66.40
2017-05-01T04:06:04.456Z,66.60
2017-05-01T04:08:32.722Z,66.50
2017-05-01T04:11:01.039Z,66.60
2017-05-01T04:13:30.033Z,66.80
2017-05-01T04:15:58.312Z,67.20
2017-05-01T04:18:26.561Z,66.70
2017-05-01T04:20:55.533Z,66.70
2017-05-01T04:23:23.799Z,66.60
2017-05-01T04:25:52.028Z,66.60
2017-05-01T04:28:20.243Z,67.60
2017-05-01T04:30:48.493Z,66.60
2017-05-01T04:33:16.728Z,66.40
2017-05-01T04:35:45.021Z,66.20
2017-05-01T04:38:14.101Z,66.30
2017-05-01T04:40:43.108Z,66.40
2017-05-01T04:43:12.110Z,66.40
2017-05-01T04:45:40.375Z,66.40
2017-05-01T04:48:09.372Z,66.60
2017-05-01T04:50:37.640Z,66.40
2017-05-01T04:53:06.637Z,66.10
2017-05-01T04:55:35.613Z,66.20
2017-05-01T04:58:04.587Z,66.20
2017-05-01T05:00:32.887Z,66.40
2017-05-01T05:03:01.863Z,66.00
2017-05-01T05:05:30.876Z,66.10
2017-05-01T05:07:59.865Z,66.00
2017-05-01T05:10:28.840Z,67.00
2017-05-01T05:12:57.123Z,66.20
2017-05-01T05:15:25.401Z,66.20
2017-05-01T05:17:54.401Z,65.90
2017-05-01T05:20:23.396Z,66.30
2017-05-01T05:22:52.388Z,65.60
2017-05-01T05:25:21.385Z,65.40
2017-05-01T05:27:50.362Z,65.00
2017-05-01T05:30:19.358Z,64.70
2017-05-01T05:32:48.335Z,64.50
2017-05-01T05:35:16.579Z,64.50
2017-05-01T05:37:44.823Z,64.10
2017-05-01T05:40:13.066Z,64.30
2017-05-01T05:42:41.376Z,64.10
2017-05-01T05:45:09.646Z,64.20
2017-05-01T05:47:37.883Z,64.30
2017-05-01T05:50:06.164Z,64.10
2017-05-01T05:52:34.413Z,63.70
2017-05-01T05:55:02.792Z,63.70
2017-05-01T05:57:31.008Z,63.60
2017-05-01T06:00:00.008Z,63.20
2017-05-01T06:02:28.271Z,63.10
2017-05-01T06:04:57.381Z,62.90
2017-05-01T06:07:25.759Z,63.10
2017-05-01T06:09:54.023Z,63.00
2017-05-01T06:12:23.003Z,62.70
2017-05-01T06:14:51.272Z,62.40
2017-05-01T06:17:19.510Z,62.40
2017-05-01T06:19:47.840Z,62.30
2017-05-01T06:22:16.836Z,62.40
2017-05-01T06:24:45.814Z,62.30
2017-05-01T06:27:14.817Z,62.10
2017-05-01T06:29:43.800Z,61.90
2017-05-01T06:32:12.772Z,62.00
2017-05-01T06:34:41.005Z,61.90
2017-05-01T06:37:09.267Z,61.60
2017-05-01T06:39:37.539Z,61.30
2017-05-01T06:42:05.801Z,61.60
2017-05-01T06:44:34.888Z,61.30
2017-05-01T06:47:03.859Z,61.20
2017-05-01T06:49:32.177Z,61.00
2017-05-01T06:52:00.426Z,60.70
2017-05-01T06:54:29.401Z,60.20
2017-05-01T06:56:57.631Z,60.00
2017-05-01T06:59:25.877Z,59.80
2017-05-01T07:01:54.863Z,59.70
2017-05-01T07:04:23.836Z,59.50
2017-05-01T07:06:52.102Z,59.20
2017-05-01T07:09:21.132Z,59.20
2017-05-01T07:11:49.416Z,58.80
2017-05-01T07:14:17.692Z,58.20
2017-05-01T07:16:45.930Z,58.30
2017-05-01T07:19:14.175Z,57.80
2017-05-01T07:21:42.418Z,57.60
2017-05-01T07:24:10.653Z,57.70
2017-05-01T07:26:38.971Z,57.50
2017-05-01T07:29:07.233Z,57.50
2017-05-01T07:31:36.213Z,57.30
2017-05-01T07:34:05.221Z,57.30
2017-05-01T07:36:33.490Z,57.00
2017-05-01T07:39:02.484Z,57.00
2017-05-01T07:41:30.802Z,57.00
2017-05-01T07:43:59.152Z,56.30
2017-05-01T07:46:27.414Z,56.20
2017-05-01T07:48:55.648Z,55.80
2017-05-01T07:51:23.924Z,55.10
2017-05-01T07:53:52.251Z,54.60
2017-05-01T07:56:20.497Z,54.50
2017-05-01T07:58:48.815Z,53.90
2017-05-01T08:01:17.113Z,53.50
2017-05-01T08:03:45.347Z,53.20
2017-05-01T08:06:13.628Z,53.50
2017-05-01T08:08:41.894Z,53.30
2017-05-01T08:11:10.210Z,52.90
2017-05-01T08:13:38.556Z,52.70
2017-05-01T08:16:07.170Z,52.90
2017-05-01T08:18:35.429Z,52.50
2017-05-01T08:21:03.710Z,51.90
2017-05-01T08:23:31.938Z,52.30
2017-05-01T08:26:00.928Z,51.60
2017-05-01T08:28:29.932Z,51.90
2017-05-01T08:30:58.935Z,51.50
2017-05-01T08:33:27.218Z,51.40
2017-05-01T08:35:55.479Z,50.90
2017-05-01T08:38:23.725Z,50.90
2017-05-01T08:40:51.956Z,50.20
2017-05-01T08:43:20.225Z,50.10
2017-05-01T08:45:48.526Z,49.80
2017-05-01T08:48:16.766Z,49.70
2017-05-01T08:50:45.113Z,50.10
2017-05-01T08:53:13.759Z,49.40
2017-05-01T08:55:42.034Z,49.40
2017-05-01T08:58:10.288Z,49.70
2017-05-01T09:00:38.523Z,50.00
2017-05-01T09:03:07.549Z,49.50
2017-05-01T09:05:35.850Z,49.70
2017-05-01T09:08:04.192Z,49.10
2017-05-01T09:10:32.483Z,49.80
2017-05-01T09:13:00.841Z,49.30
2017-05-01T09:15:29.096Z,49.10
2017-05-01T09:17:58.079Z,48.80
2017-05-01T09:20:26.358Z,48.80
2017-05-01T09:22:54.595Z,48.80
2017-05-01T09:25:22.945Z,48.30
2017-05-01T09:27:51.315Z,47.40
2017-05-01T09:30:19.553Z,47.50
2017-05-01T09:32:47.801Z,47.30
2017-05-01T09:35:16.097Z,46.70
2017-05-01T09:37:44.402Z,47.00
2017-05-01T09:40:13.421Z,47.30
2017-05-01T09:42:41.799Z,46.60
2017-05-01T09:45:10.039Z,47.20
2017-05-01T09:47:39.060Z,47.80
2017-05-01T09:50:07.336Z,47.10
2017-05-01T09:52:35.653Z,46.70
2017-05-01T09:55:03.900Z,46.30
2017-05-01T09:57:32.191Z,46.20
2017-05-01T10:00:00.483Z,45.90
2017-05-01T10:02:28.719Z,46.00
2017-05-01T10:04:57.021Z,46.30
2017-05-01T10:07:25.256Z,45.20
2017-05-01T10:09:53.519Z,44.90
2017-05-01T10:12:22.518Z,45.60
2017-05-01T10:14:50.846Z,45.60
2017-05-01T10:17:19.123Z,45.00
2017-05-01T10:19:47.524Z,45.20
2017-05-01T10:22:15.837Z,45.30
2017-05-01T10:24:44.113Z,45.00
2017-05-01T10:27:12.384Z,44.00
2017-05-01T10:29:40.652Z,44.60
2017-05-01T10:32:08.929Z,43.50
2017-05-01T10:34:37.210Z,43.90
2017-05-01T10:37:05.484Z,43.40
2017-05-01T10:39:33.950Z,44.00
2017-05-01T10:42:02.274Z,43.00
2017-05-01T10:44:30.554Z,42.70
2017-05-01T10:46:58.812Z,42.50
2017-05-01T10:49:27.083Z,42.40
2017-05-01T10:51:55.344Z,42.00
2017-05-01T10:54:23.582Z,42.10
2017-05-01T10:56:51.894Z,42.70
2017-05-01T10:59:20.133Z,42.80
2017-05-01T11:01:49.106Z,42.70
2017-05-01T11:04:17.421Z,42.50
2017-05-01T11:06:46.397Z,41.50
2017-05-01T11:09:15.409Z,40.90
2017-05-01T11:11:43.666Z,40.90
2017-05-01T11:14:12.680Z,41.00
2017-05-01T11:16:40.911Z,41.20
2017-05-01T11:19:09.168Z,41.20
2017-05-01T11:21:37.500Z,40.50
2017-05-01T11:24:05.769Z,40.10
2017-05-01T11:26:34.769Z,39.70
2017-05-01T11:29:03.188Z,39.40
2017-05-01T11:31:31.432Z,39.90
2017-05-01T11:33:59.728Z,39.90
2017-05-01T11:36:27.959Z,40.40
2017-05-01T11:38:56.703Z,40.60
2017-05-01T11:41:24.979Z,40.60
2017-05-01T11:43:53.313Z,40.50
2017-05-01T11:46:21.592Z,39.70
2017-05-01T11:48:49.969Z,39.60
2017-05-01T11:51:18.246Z,39.40
2017-05-01T11:53:46.521Z,38.90
2017-05-01T11:56:14.796Z,39.40
2017-05-01T11:58:43.032Z,39.10
2017-05-01T12:01:11.344Z,38.80
2017-05-01T12:03:39.612Z,38.70
2017-05-01T12:06:08.665Z,39.20
2017-05-01T12:08:36.984Z,39.00
2017-05-01T12:11:06.071Z,38.90
2017-05-01T12:13:35.072Z,38.20
2017-05-01T12:16:03.314Z,38.90
2017-05-01T12:18:31.568Z,37.90
2017-05-01T12:20:59.995Z,38.30
2017-05-01T12:23:28.970Z,38.10
2017-05-01T12:25:58.004Z,38.50
2017-05-01T12:28:26.231Z,38.40
2017-05-01T12:30:54.547Z,38.30
2017-05-01T12:33:22.910Z,38.80
2017-05-01T12:35:51.902Z,39.60
2017-05-01T12:38:20.283Z,38.40
2017-05-01T12:40:48.538Z,38.80
2017-05-01T12:43:16.771Z,38.80
2017-05-01T12:45:45.073Z,38.00
2017-05-01T12:48:13.586Z,38.00
2017-05-01T12:50:42.562Z,38.20
2017-05-01T12:53:11.545Z,38.50
2017-05-01T12:55:39.843Z,38.30
2017-05-01T12:58:08.977Z,38.90
2017-05-01T13:00:37.336Z,38.40
2017-05-01T13:03:05.691Z,38.20
2017-05-01T13:05:34.801Z,38.70
2017-05-01T13:08:03.031Z,39.10
2017-05-01T13:10:31.292Z,38.80
2017-05-01T13:12:59.539Z,39.00
2017-05-01T13:15:27.890Z,38.00
2017-05-01T13:17:56.266Z,37.70
2017-05-01T13:20:25.241Z,37.60
2017-05-01T13:22:53.480Z,38.20
2017-05-01T13:25:21.733Z,37.90
2017-05-01T13:27:49.980Z,37.90
2017-05-01T13:30:18.981Z,37.60
2017-05-01T13:32:47.252Z,38.30
2017-05-01T13:35:16.349Z,38.20
2017-05-01T13:37:44.639Z,39.50
2017-05-01T13:40:12.904Z,38.80
2017-05-01T13:42:41.186Z,39.30
2017-05-01T13:45:09.453Z,38.70
2017-05-01T13:47:37.723Z,38.20
2017-05-01T13:50:06.724Z,38.60
2017-05-01T13:52:34.983Z,38.70
2017-05-01T13:55:04.028Z,38.70
2017-05-01T13:57:32.302Z,38.40
2017-05-01T14:00:00.581Z,38.90
2017-05-01T14:02:28.967Z,38.80
2017-05-01T14:04:57.245Z,39.30
2017-05-01T14:07:25.701Z,39.40
2017-05-01T14:09:53.967Z,39.20
2017-05-01T14:12:22.224Z,39.40
2017-05-01T14:14:50.470Z,40.10
2017-05-01T14:17:18.732Z,40.30
2017-05-01T14:19:46.962Z,41.40
2017-05-01T14:22:15.249Z,43.20
2017-05-01T14:24:43.496Z,44.10
2017-05-01T14:27:11.772Z,44.20
2017-05-01T14:29:40.022Z,45.10
2017-05-01T14:32:08.321Z,44.90
2017-05-01T14:34:36.571Z,44.80
2017-05-01T14:37:04.890Z,45.60
2017-05-01T14:39:33.249Z,46.00
2017-05-01T14:42:01.505Z,46.20
2017-05-01T14:44:29.760Z,46.50
2017-05-01T14:46:58.011Z,46.20
2017-05-01T14:49:26.979Z,46.10
2017-05-01T14:51:55.285Z,46.00
2017-05-01T14:54:23.556Z,45.70
2017-05-01T14:56:51.840Z,45.80
2017-05-01T14:59:20.069Z,46.30
2017-05-01T15:01:48.385Z,46.60
2017-05-01T15:04:16.762Z,47.00
2017-05-01T15:06:45.068Z,47.50
2017-05-01T15:09:13.368Z,47.20
2017-05-01T15:11:41.687Z,47.60
2017-05-01T15:14:09.920Z,48.40
2017-05-01T15:16:38.217Z,47.50
2017-05-01T15:19:06.472Z,47.00
2017-05-01T15:21:34.728Z,46.80
2017-05-01T15:24:03.164Z,47.00
2017-05-01T15:26:32.201Z,46.70
2017-05-01T15:29:00.423Z,46.70
2017-05-01T15:31:29.528Z,46.50
2017-05-01T15:33:56.993Z,46.50
2017-05-01T15:36:25.293Z,46.50
2017-05-01T15:38:54.361Z,46.50
2017-05-01T15:41:22.616Z,46.30
2017-05-01T15:43:51.080Z,46.40
2017-05-01T15:46:19.475Z,46.10
2017-05-01T15:48:47.710Z,46.10
2017-05-01T15:51:16.014Z,46.20
2017-05-01T15:53:44.353Z,46.50
2017-05-01T15:56:12.598Z,46.60
2017-05-01T15:58:40.875Z,46.80
2017-05-01T16:01:09.221Z,46.50
2017-05-01T16:03:37.457Z,46.90
2017-05-01T16:06:05.824Z,47.00
2017-05-01T16:08:34.089Z,46.70
2017-05-01T16:11:03.058Z,46.80
2017-05-01T16:13:31.468Z,46.70
2017-05-01T16:15:59.743Z,46.50
2017-05-01T16:18:27.985Z,46.80
2017-05-01T16:20:57.303Z,47.20
2017-05-01T16:23:25.653Z,46.80
2017-05-01T16:25:54.036Z,46.80
2017-05-01T16:28:22.266Z,47.00
2017-05-01T16:30:50.909Z,47.00
2017-05-01T16:33:19.163Z,47.20
2017-05-01T16:35:48.256Z,47.50
2017-05-01T16:38:16.647Z,47.40
2017-05-01T16:40:44.881Z,47.10
2017-05-01T16:43:13.236Z,47.00
2017-05-01T16:45:41.514Z,47.30
2017-05-01T16:48:09.793Z,47.40
2017-05-01T16:50:38.028Z,47.30
2017-05-01T16:53:06.331Z,47.10
2017-05-01T16:55:34.641Z,47.60
2017-05-01T16:58:02.915Z,48.10
2017-05-01T17:00:31.566Z,48.10
2017-05-01T17:03:00.129Z,48.30
2017-05-01T17:05:28.480Z,48.00
2017-05-01T17:07:56.757Z,48.50
2017-05-01T17:10:25.760Z,48.20
2017-05-01T17:12:54.037Z,48.10
2017-05-01T17:15:22.326Z,48.20
2017-05-01T17:17:50.678Z,48.10
2017-05-01T17:20:18.924Z,47.50
2017-05-01T17:22:47.228Z,47.40
2017-05-01T17:25:15.475Z,47.20
2017-05-01T17:27:43.759Z,47.30
2017-05-01T17:30:12.162Z,47.20
2017-05-01T17:32:40.408Z,47.60
2017-05-01T17:35:08.709Z,47.90
2017-05-01T17:37:37.019Z,47.90
2017-05-01T17:40:05.256Z,48.50
2017-05-01T17:42:34.253Z,48.60
2017-05-01T17:45:02.539Z,49.60
2017-05-01T17:47:30.775Z,49.10
2017-05-01T17:49:59.030Z,48.80
2017-05-01T17:52:27.587Z,49.20
2017-05-01T17:54:55.836Z,49.30
2017-05-01T17:57:24.112Z,49.40
2017-05-01T17:59:52.364Z,49.50
2017-05-01T18:02:20.864Z,49.60
2017-05-01T18:04:49.105Z,49.80
2017-05-01T18:07:17.368Z,49.70
2017-05-01T18:09:45.652Z,50.20
2017-05-01T18:12:13.916Z,49.80
2017-05-01T18:14:42.300Z,49.80
2017-05-01T18:17:10.636Z,50.00
2017-05-01T18:19:38.908Z,50.10
2017-05-01T18:22:07.178Z,50.00
2017-05-01T18:24:35.422Z,49.90
2017-05-01T18:27:03.697Z,50.10
2017-05-01T18:29:31.948Z,50.00
2017-05-01T18:32:00.269Z,50.00
2017-05-01T18:34:28.554Z,50.00
2017-05-01T18:36:56.821Z,50.00
2017-05-01T18:39:25.371Z,50.20
2017-05-01T18:41:54.350Z,53.40
2017-05-01T18:44:22.611Z,55.00
2017-05-01T18:46:50.841Z,55.80
2017-05-01T18:49:19.093Z,56.40
2017-05-01T18:51:48.105Z,56.80
2017-05-01T18:54:16.475Z,57.00
2017-05-01T18:56:44.764Z,57.60
2017-05-01T18:59:13.009Z,57.30
2017-05-01T19:01:41.232Z,57.30
2017-05-01T19:04:09.509Z,57.40
2017-05-01T19:06:37.754Z,57.60
2017-05-01T19:09:06.020Z,57.70
2017-05-01T19:11:34.287Z,58.00
2017-05-01T19:14:03.332Z,58.30
2017-05-01T19:16:31.588Z,58.40
2017-05-01T19:19:00.655Z,58.40
2017-05-01T19:21:29.653Z,58.60
2017-05-01T19:23:57.937Z,58.70
2017-05-01T19:26:26.168Z,58.80
2017-05-01T19:28:54.508Z,58.80
2017-05-01T19:31:22.771Z,59.00
2017-05-01T19:33:51.219Z,59.00
2017-05-01T19:36:19.492Z,59.30
2017-05-01T19:38:48.488Z,59.30
2017-05-01T19:41:17.480Z,59.30
2017-05-01T19:43:45.856Z,59.30
2017-05-01T19:46:14.101Z,59.30
2017-05-01T19:48:42.349Z,59.40
2017-05-01T19:51:10.600Z,59.40
2017-05-01T19:53:38.965Z,59.40
2017-05-01T19:56:07.205Z,59.30
2017-05-01T19:58:35.484Z,59.20
2017-05-01T20:01:03.704Z,59.10
2017-05-01T20:03:32.009Z,59.10
2017-05-01T20:06:00.349Z,59.00
2017-05-01T20:08:28.601Z,59.10
2017-05-01T20:10:56.929Z,59.20
2017-05-01T20:13:25.272Z,59.10
2017-05-01T20:15:53.549Z,59.20
2017-05-01T20:18:21.800Z,59.50
2017-05-01T20:20:50.856Z,58.70
2017-05-01T20:23:19.184Z,58.70
2017-05-01T20:25:47.457Z,59.30
2017-05-01T20:28:16.442Z,58.90
2017-05-01T20:30:45.435Z,58.80
2017-05-01T20:33:14.406Z,58.50
2017-05-01T20:35:42.662Z,58.70
2017-05-01T20:38:10.880Z,58.90
2017-05-01T20:40:39.147Z,59.10
2017-05-01T20:43:07.436Z,59.00
2017-05-01T20:45:35.736Z,58.90
2017-05-01T20:48:03.975Z,58.80
2017-05-01T20:50:32.974Z,58.80
2017-05-01T20:53:01.968Z,58.90
2017-05-01T20:55:30.939Z,59.30
2017-05-01T20:57:59.929Z,59.10
2017-05-01T21:00:28.157Z,59.10
2017-05-01T21:02:56.385Z,59.10
2017-05-01T21:05:25.391Z,58.90
2017-05-01T21:07:54.400Z,58.90
2017-05-01T21:10:22.640Z,59.00
2017-05-01T21:12:51.636Z,59.70
2017-05-01T21:15:20.596Z,59.00
2017-05-01T21:17:49.044Z,59.20
2017-05-01T21:20:17.383Z,59.20
2017-05-01T21:22:45.603Z,59.40
2017-05-01T21:25:13.829Z,59.50
2017-05-01T21:27:42.140Z,59.50
2017-05-01T21:30:10.360Z,59.60
2017-05-01T21:32:38.704Z,59.70
2017-05-01T21:35:06.979Z,59.90
2017-05-01T21:37:35.244Z,59.80
2017-05-01T21:40:03.508Z,59.90
2017-05-01T21:42:31.779Z,60.10
2017-05-01T21:45:00.025Z,60.90
2017-05-01T21:47:28.249Z,60.20
2017-05-01T21:49:56.610Z,60.50
2017-05-01T21:52:24.848Z,60.10
2017-05-01T21:54:53.076Z,60.40
2017-05-01T21:57:21.323Z,60.40
2017-05-01T21:59:49.584Z,60.30
2017-05-01T22:02:18.577Z,60.40
2017-05-01T22:04:47.570Z,60.50
2017-05-01T22:07:16.581Z,60.90
2017-05-01T22:09:44.872Z,60.50
2017-05-01T22:12:13.224Z,61.00
2017-05-01T22:14:42.221Z,60.60
2017-05-01T22:17:11.217Z,60.90
2017-05-01T22:19:39.463Z,61.60
2017-05-01T22:22:07.702Z,60.90
2017-05-01T22:24:35.934Z,61.00
2017-05-01T22:27:04.914Z,61.00
2017-05-01T22:29:33.902Z,60.90
2017-05-01T22:32:02.195Z,61.00
2017-05-01T22:34:31.231Z,61.10
2017-05-01T22:36:59.477Z,61.30
2017-05-01T22:39:27.758Z,61.50
2017-05-01T22:41:56.052Z,61.80
2017-05-01T22:44:24.310Z,61.90
2017-05-01T22:46:52.580Z,61.90
2017-05-01T22:49:20.829Z,62.30
2017-05-01T22:51:49.832Z,62.50
2017-05-01T22:54:18.800Z,62.70
2017-05-01T22:56:47.057Z,62.60
2017-05-01T22:59:15.383Z,62.80
2017-05-01T23:01:43.605Z,63.10
2017-05-01T23:04:11.849Z,62.90
2017-05-01T23:06:40.197Z,63.20
2017-05-01T23:09:09.172Z,63.50
2017-05-01T23:11:37.441Z,63.60
2017-05-01T23:14:05.679Z,63.50
2017-05-01T23:16:33.901Z,63.70
2017-05-01T23:19:02.213Z,63.90
2017-05-01T23:21:30.464Z,64.20
2017-05-01T23:23:59.474Z,64.20
2017-05-01T23:26:27.735Z,64.60
2017-05-01T23:28:56.728Z,64.60
2017-05-01T23:31:25.722Z,64.90
2017-05-01T23:33:54.757Z,65.20
2017-05-01T23:36:23.111Z,65.40
2017-05-01T23:38:51.336Z,65.40
2017-05-01T23:41:19.585Z,65.50
2017-05-01T23:43:47.813Z,65.80
2017-05-01T23:46:16.793Z,65.60
2017-05-01T23:48:45.783Z,65.90
2017-05-01T23:51:14.752Z,65.90
2017-05-01T23:53:42.976Z,66.20
2017-05-01T23:56:11.220Z,66.10
2017-05-01T23:58:39.454Z,66.30
